地図

経路データ

SID SEASON NUMBER BASIN SUBBASIN NAME ISO_TIME NATURE LAT LON WMO_WIND WMO_PRES WMO_AGENCY TRACK_TYPE DIST2LAND LANDFALL IFLAG USA_AGENCY USA_ATCF_ID USA_LAT USA_LON USA_RECORD USA_STATUS USA_WIND USA_PRES USA_SSHS USA_R34_NE USA_R34_SE USA_R34_SW USA_R34_NW USA_R50_NE USA_R50_SE USA_R50_SW USA_R50_NW USA_R64_NE USA_R64_SE USA_R64_SW USA_R64_NW USA_POCI USA_ROCI USA_RMW USA_EYE TOKYO_LAT TOKYO_LON TOKYO_GRADE TOKYO_WIND TOKYO_PRES TOKYO_R50_DIR TOKYO_R50_LONG TOKYO_R50_SHORT TOKYO_R30_DIR TOKYO_R30_LONG TOKYO_R30_SHORT TOKYO_LAND CMA_LAT CMA_LON CMA_CAT CMA_WIND CMA_PRES HKO_LAT HKO_LON HKO_CAT HKO_WIND HKO_PRES NEWDELHI_LAT NEWDELHI_LON NEWDELHI_GRADE NEWDELHI_WIND NEWDELHI_PRES NEWDELHI_CI NEWDELHI_DP NEWDELHI_POCI REUNION_LAT REUNION_LON REUNION_TYPE REUNION_WIND REUNION_PRES REUNION_TNUM REUNION_CI REUNION_RMW REUNION_R34_NE REUNION_R34_SE REUNION_R34_SW REUNION_R34_NW REUNION_R50_NE REUNION_R50_SE REUNION_R50_SW REUNION_R50_NW REUNION_R64_NE REUNION_R64_SE REUNION_R64_SW REUNION_R64_NW BOM_LAT BOM_LON BOM_TYPE BOM_WIND BOM_PRES BOM_TNUM BOM_CI BOM_RMW BOM_R34_NE BOM_R34_SE BOM_R34_SW BOM_R34_NW BOM_R50_NE BOM_R50_SE BOM_R50_SW BOM_R50_NW BOM_R64_NE BOM_R64_SE BOM_R64_SW BOM_R64_NW BOM_ROCI BOM_POCI BOM_EYE BOM_POS_METHOD BOM_PRES_METHOD NADI_LAT NADI_LON NADI_CAT NADI_WIND NADI_PRES WELLINGTON_LAT WELLINGTON_LON WELLINGTON_WIND WELLINGTON_PRES DS824_LAT DS824_LON DS824_STAGE DS824_WIND DS824_PRES TD9636_LAT TD9636_LON TD9636_STAGE TD9636_WIND TD9636_PRES TD9635_LAT TD9635_LON TD9635_WIND TD9635_PRES TD9635_ROCI NEUMANN_LAT NEUMANN_LON NEUMANN_CLASS NEUMANN_WIND NEUMANN_PRES MLC_LAT MLC_LON MLC_CLASS MLC_WIND MLC_PRES USA_GUST BOM_GUST BOM_GUST_PER REUNION_GUST REUNION_GUST_PER USA_SEAHGT USA_SEARAD_NE USA_SEARAD_SE USA_SEARAD_SW USA_SEARAD_NW STORM_SPEED STORM_DIR
1980330N36314 1980 102 NA NA KARL 1980-11-25 00:00:00 SS 36.0000 -46.0000 50 988 hurdat_atl main 1321 1304 O_____________ hurdat_atl AL181980 36.0000 -46.0000 SS 50 988 -2 14 51
1980330N36314 1980 102 NA NA KARL 1980-11-25 03:00:00 SS 36.4437 -45.3248 main 1308 1286 P_____________ AL181980 36.4437 -45.3248 SS 50 988 -2 13 50
1980330N36314 1980 102 NA NA KARL 1980-11-25 06:00:00 SS 36.8000 -44.8000 50 988 hurdat_atl main 1291 1280 O_____________ hurdat_atl AL181980 36.8000 -44.8000 SS 50 988 -2 9 47
1980330N36314 1980 102 NA NA KARL 1980-11-25 09:00:00 SS 37.0220 -44.5442 main 1285 1266 P_____________ AL181980 37.0220 -44.5442 SS 52 988 -2 5 31
1980330N36314 1980 102 NA NA KARL 1980-11-25 12:00:00 SS 37.2000 -44.5000 55 988 hurdat_atl main 1266 1233 O_____________ hurdat_atl AL181980 37.2000 -44.5000 SS 55 988 -2 5 357
1980330N36314 1980 102 NA NA KARL 1980-11-25 15:00:00 SS 37.5025 -44.5695 main 1233 1209 P_____________ AL181980 37.5025 -44.5695 SS 60 988 -2 5 342
1980330N36314 1980 102 NA NA KARL 1980-11-25 18:00:00 TS 37.7000 -44.7000 65 988 hurdat_atl main 1209 1205 O_____________ hurdat_atl AL181980 37.7000 -44.7000 HU 65 988 1 2 301
1980330N36314 1980 102 NA NA KARL 1980-11-25 21:00:00 TS 37.6174 -44.8106 main 1214 1214 P_____________ AL181980 37.6174 -44.8106 HU 67 988 1 3 194
1980330N36314 1980 102 NA NA KARL 1980-11-26 00:00:00 TS 37.4000 -44.8000 70 988 hurdat_atl main 1233 1233 O_____________ hurdat_atl AL181980 37.4000 -44.8000 HU 70 988 1 4 162
1980330N36314 1980 102 NA NA KARL 1980-11-26 03:00:00 TS 37.1916 -44.6349 main 1261 1261 P_____________ AL181980 37.1916 -44.6349 HU 72 986 1 6 130
1980330N36314 1980 102 NA NA KARL 1980-11-26 06:00:00 TS 37.0000 -44.2000 75 985 hurdat_atl main 1299 1299 O_____________ hurdat_atl AL181980 37.0000 -44.2000 HU 75 985 1 10 110
1980330N36314 1980 102 NA NA KARL 1980-11-26 09:00:00 TS 36.8477 -43.4537 main 1351 1351 P_____________ AL181980 36.8477 -43.4537 HU 75 985 1 14 98
1980330N36314 1980 102 NA NA KARL 1980-11-26 12:00:00 TS 36.8000 -42.5000 75 985 hurdat_atl main 1401 1401 O_____________ hurdat_atl AL181980 36.8000 -42.5000 HU 75 985 1 15 89
1980330N36314 1980 102 NA NA KARL 1980-11-26 15:00:00 TS 36.8818 -41.5371 main 1445 1445 P_____________ AL181980 36.8818 -41.5371 HU 75 985 1 16 79
1980330N36314 1980 102 NA NA KARL 1980-11-26 18:00:00 TS 37.1000 -40.5000 75 985 hurdat_atl main 1484 1484 O_____________ hurdat_atl AL181980 37.1000 -40.5000 HU 75 985 1 18 74
1980330N36314 1980 102 NA NA KARL 1980-11-26 21:00:00 TS 37.3902 -39.3847 main 1525 1525 P_____________ AL181980 37.3902 -39.3847 HU 72 986 1 19 68
1980330N36314 1980 102 NA NA KARL 1980-11-27 00:00:00 TS 37.8000 -38.3000 70 988 hurdat_atl main 1561 1561 O_____________ hurdat_atl AL181980 37.8000 -38.3000 HU 70 988 1 18 61
1980330N36314 1980 102 NA NA KARL 1980-11-27 03:00:00 TS 38.2889 -37.3536 main 1581 1580 P_____________ AL181980 38.2889 -37.3536 HU 67 989 1 18 52
1980330N36314 1980 102 NA NA KARL 1980-11-27 06:00:00 TS 38.9000 -36.5000 65 990 hurdat_atl main 1597 1597 O_____________ hurdat_atl AL181980 38.9000 -36.5000 HU 65 990 1 18 45
1980330N36314 1980 102 NA NA KARL 1980-11-27 09:00:00 TS 39.5889 -35.6972 main 1605 1605 P_____________ AL181980 39.5889 -35.6972 HU 65 990 1 19 39
1980330N36314 1980 102 NA NA KARL 1980-11-27 12:00:00 TS 40.4000 -34.9000 65 990 hurdat_atl main 1611 1611 O_____________ hurdat_atl AL181980 40.4000 -34.9000 HU 65 990 1 21 38
1980330N36314 1980 102 NA NA KARL 1980-11-27 15:00:00 TS 41.2608 -33.9621 main 1619 1619 P_____________ AL181980 41.2608 -33.9621 HU 65 990 1 23 35
1980330N36314 1980 102 NA NA KARL 1980-11-27 18:00:00 TS 42.3000 -33.1000 65 990 hurdat_atl main 1629 1614 O_____________ hurdat_atl AL181980 42.3000 -33.1000 HU 65 990 1 26 25
1980330N36314 1980 102 NA NA KARL 1980-11-27 21:00:00 TS 43.5795 -32.4779 main 1612 1596 P_____________ AL181980 43.5795 -32.4779 HU 65 990 1 28 16
1980330N36314 1980 102 NA NA KARL 1980-11-28 00:00:00 ET 45.0000 -32.0000 65 990 hurdat_atl main 1596 O_____________ hurdat_atl AL181980 45.0000 -32.0000 EX 65 990 -4 29 13

IBTrACS Databaseについて

本データベースは、米国NOAAが公開する1842年以降の世界の熱帯低気圧のベストトラックデータアーカイブInternational Best Track Archive for Climate Stewardship (IBTrACS)を、ウェブで閲覧しやすい形式に変換したものです。

最終更新日:2021-10-21